sensor_id;sensor_type;location;lat;lon;timestamp;pressure;altitude;pressure_sealevel;temperature;humidity
19590;BME280;12231;42.782;23.388;2023-02-19T00:01:19;95909.72;;;3.99;97.91
19590;BME280;12231;42.782;23.388;2023-02-19T00:03:53;95910.56;;;3.99;98.60
19590;BME280;12231;42.782;23.388;2023-02-19T00:06:20;95898.09;;;3.90;99.16
19590;BME280;12231;42.782;23.388;2023-02-19T00:08:46;95906.44;;;3.95;98.59
19590;BME280;12231;42.782;23.388;2023-02-19T00:11:15;95903.69;;;4.03;97.92
19590;BME280;12231;42.782;23.388;2023-02-19T00:13:42;95904.69;;;3.97;98.89
19590;BME280;12231;42.782;23.388;2023-02-19T00:16:11;95909.47;;;4.08;98.01
19590;BME280;12231;42.782;23.388;2023-02-19T00:18:37;95900.38;;;3.99;98.48
19590;BME280;12231;42.782;23.388;2023-02-19T00:21:02;95886.44;;;4.11;98.28
19590;BME280;12231;42.782;23.388;2023-02-19T00:23:29;95884.53;;;4.17;97.76
19590;BME280;12231;42.782;23.388;2023-02-19T00:25:56;95875.09;;;4.21;97.47
19590;BME280;12231;42.782;23.388;2023-02-19T00:28:21;95883.56;;;4.48;96.29
19590;BME280;12231;42.782;23.388;2023-02-19T00:30:47;95880.00;;;4.53;95.32
19590;BME280;12231;42.782;23.388;2023-02-19T00:33:13;95874.47;;;4.67;94.42
19590;BME280;12231;42.782;23.388;2023-02-19T00:35:38;95877.78;;;4.69;93.55
19590;BME280;12231;42.782;23.388;2023-02-19T00:38:04;95866.59;;;4.73;93.10
19590;BME280;12231;42.782;23.388;2023-02-19T00:40:29;95856.28;;;4.76;92.98
19590;BME280;12231;42.782;23.388;2023-02-19T00:42:55;95846.81;;;4.79;92.50
19590;BME280;12231;42.782;23.388;2023-02-19T00:45:21;95852.72;;;4.80;91.86
19590;BME280;12231;42.782;23.388;2023-02-19T00:47:46;95847.63;;;4.80;91.73
19590;BME280;12231;42.782;23.388;2023-02-19T00:50:12;95846.72;;;4.82;91.62
19590;BME280;12231;42.782;23.388;2023-02-19T00:52:37;95850.72;;;4.65;92.33
19590;BME280;12231;42.782;23.388;2023-02-19T00:55:03;95856.25;;;4.77;91.87
19590;BME280;12231;42.782;23.388;2023-02-19T00:57:28;95856.06;;;4.82;92.12
19590;BME280;12231;42.782;23.388;2023-02-19T00:59:54;95866.22;;;4.83;91.63
19590;BME280;12231;42.782;23.388;2023-02-19T01:02:19;95865.22;;;4.89;90.91
19590;BME280;12231;42.782;23.388;2023-02-19T01:04:44;95860.72;;;4.95;90.08
19590;BME280;12231;42.782;23.388;2023-02-19T01:07:10;95853.91;;;4.96;89.92
19590;BME280;12231;42.782;23.388;2023-02-19T01:09:35;95844.50;;;4.96;89.34
19590;BME280;12231;42.782;23.388;2023-02-19T01:12:03;95835.75;;;4.79;89.30
19590;BME280;12231;42.782;23.388;2023-02-19T01:14:28;95838.31;;;4.79;89.64
19590;BME280;12231;42.782;23.388;2023-02-19T01:16:54;95844.44;;;4.73;89.65
19590;BME280;12231;42.782;23.388;2023-02-19T01:19:19;95837.06;;;4.66;90.02
19590;BME280;12231;42.782;23.388;2023-02-19T01:21:44;95841.09;;;4.47;91.64
19590;BME280;12231;42.782;23.388;2023-02-19T01:24:10;95837.69;;;4.46;92.67
19590;BME280;12231;42.782;23.388;2023-02-19T01:26:35;95844.28;;;4.53;91.89
19590;BME280;12231;42.782;23.388;2023-02-19T01:29:01;95845.13;;;4.54;92.57
19590;BME280;12231;42.782;23.388;2023-02-19T01:31:27;95836.03;;;4.45;93.85
19590;BME280;12231;42.782;23.388;2023-02-19T01:33:58;95844.13;;;4.32;96.00
19590;BME280;12231;42.782;23.388;2023-02-19T01:36:24;95851.50;;;4.41;96.97
19590;BME280;12231;42.782;23.388;2023-02-19T01:38:49;95856.19;;;4.53;97.40
19590;BME280;12231;42.782;23.388;2023-02-19T01:41:21;95871.81;;;4.70;98.21
19590;BME280;12231;42.782;23.388;2023-02-19T01:46:31;95872.19;;;5.08;97.73
19590;BME280;12231;42.782;23.388;2023-02-19T01:49:19;95872.66;;;5.19;96.84
19590;BME280;12231;42.782;23.388;2023-02-19T01:51:48;95868.19;;;5.26;95.85
19590;BME280;12231;42.782;23.388;2023-02-19T01:54:18;95858.47;;;5.35;95.23
19590;BME280;12231;42.782;23.388;2023-02-19T01:56:47;95873.91;;;5.32;95.22
19590;BME280;12231;42.782;23.388;2023-02-19T01:59:15;95870.31;;;5.38;94.13
19590;BME280;12231;42.782;23.388;2023-02-19T02:01:41;95863.41;;;5.40;93.86
19590;BME280;12231;42.782;23.388;2023-02-19T02:04:07;95859.97;;;5.41;94.32
19590;BME280;12231;42.782;23.388;2023-02-19T02:06:50;95858.09;;;5.46;94.09
19590;BME280;12231;42.782;23.388;2023-02-19T02:09:18;95855.59;;;5.44;94.84
19590;BME280;12231;42.782;23.388;2023-02-19T02:12:02;95848.81;;;5.67;95.72
19590;BME280;12231;42.782;23.388;2023-02-19T02:14:31;95864.38;;;5.60;95.39
19590;BME280;12231;42.782;23.388;2023-02-19T02:22:51;95851.41;;;5.90;94.56
19590;BME280;12231;42.782;23.388;2023-02-19T02:31:18;95844.72;;;5.86;93.18
19590;BME280;12231;42.782;23.388;2023-02-19T02:36:40;95851.38;;;6.13;92.29
19590;BME280;12231;42.782;23.388;2023-02-19T02:39:10;95851.78;;;6.24;92.24
19590;BME280;12231;42.782;23.388;2023-02-19T02:41:45;95860.00;;;6.53;90.78
19590;BME280;12231;42.782;23.388;2023-02-19T02:44:13;95864.53;;;6.67;89.77
19590;BME280;12231;42.782;23.388;2023-02-19T02:46:41;95880.69;;;6.47;86.26
19590;BME280;12231;42.782;23.388;2023-02-19T02:49:17;95877.22;;;6.05;85.49
19590;BME280;12231;42.782;23.388;2023-02-19T02:51:46;95879.50;;;5.67;87.27
19590;BME280;12231;42.782;23.388;2023-02-19T02:54:30;95885.72;;;5.36;90.21
19590;BME280;12231;42.782;23.388;2023-02-19T02:57:16;95885.50;;;5.66;91.35
19590;BME280;12231;42.782;23.388;2023-02-19T02:59:43;95872.09;;;5.84;91.25
19590;BME280;12231;42.782;23.388;2023-02-19T03:02:22;95879.13;;;6.00;90.96
19590;BME280;12231;42.782;23.388;2023-02-19T03:07:46;95875.34;;;6.32;89.71
19590;BME280;12231;42.782;23.388;2023-02-19T03:10:18;95883.09;;;6.52;88.98
19590;BME280;12231;42.782;23.388;2023-02-19T03:12:45;95875.81;;;6.63;88.19
19590;BME280;12231;42.782;23.388;2023-02-19T03:15:37;95880.63;;;6.70;87.40
19590;BME280;12231;42.782;23.388;2023-02-19T03:18:25;95896.34;;;6.83;86.70
19590;BME280;12231;42.782;23.388;2023-02-19T03:21:13;95897.50;;;6.96;86.05
19590;BME280;12231;42.782;23.388;2023-02-19T03:23:41;95903.16;;;7.04;85.37
19590;BME280;12231;42.782;23.388;2023-02-19T03:26:26;95905.47;;;7.10;83.78
19590;BME280;12231;42.782;23.388;2023-02-19T03:28:52;95908.41;;;7.21;83.71
19590;BME280;12231;42.782;23.388;2023-02-19T03:31:37;95913.22;;;7.29;83.13
19590;BME280;12231;42.782;23.388;2023-02-19T03:34:09;95910.53;;;7.32;82.27
19590;BME280;12231;42.782;23.388;2023-02-19T03:36:43;95910.34;;;7.36;81.99
19590;BME280;12231;42.782;23.388;2023-02-19T03:39:12;95916.03;;;7.43;81.02
19590;BME280;12231;42.782;23.388;2023-02-19T03:41:46;95918.09;;;7.35;81.39
19590;BME280;12231;42.782;23.388;2023-02-19T03:46:53;95922.84;;;7.24;81.20
19590;BME280;12231;42.782;23.388;2023-02-19T03:55:27;95922.88;;;7.02;81.68
19590;BME280;12231;42.782;23.388;2023-02-19T04:01:09;95935.16;;;6.94;82.19
19590;BME280;12231;42.782;23.388;2023-02-19T04:03:41;95932.66;;;6.92;81.91
19590;BME280;12231;42.782;23.388;2023-02-19T04:06:16;95935.47;;;6.86;81.89
19590;BME280;12231;42.782;23.388;2023-02-19T04:08:47;95936.78;;;6.75;82.23
19590;BME280;12231;42.782;23.388;2023-02-19T04:11:15;95935.50;;;6.65;82.44
19590;BME280;12231;42.782;23.388;2023-02-19T04:13:44;95930.91;;;6.51;83.38
19590;BME280;12231;42.782;23.388;2023-02-19T04:16:22;95928.78;;;6.39;84.48
19590;BME280;12231;42.782;23.388;2023-02-19T04:18:51;95932.19;;;6.40;84.58
19590;BME280;12231;42.782;23.388;2023-02-19T04:21:19;95932.19;;;6.40;84.09
19590;BME280;12231;42.782;23.388;2023-02-19T04:23:47;95931.34;;;6.39;84.45
19590;BME280;12231;42.782;23.388;2023-02-19T04:26:13;95930.75;;;6.33;84.24
19590;BME280;12231;42.782;23.388;2023-02-19T04:28:40;95937.88;;;6.25;84.68
19590;BME280;12231;42.782;23.388;2023-02-19T04:31:07;95946.53;;;6.22;85.18
19590;BME280;12231;42.782;23.388;2023-02-19T04:33:32;95944.75;;;6.24;85.02
19590;BME280;12231;42.782;23.388;2023-02-19T04:35:58;95949.88;;;6.01;86.56
19590;BME280;12231;42.782;23.388;2023-02-19T04:38:23;95953.84;;;6.08;86.53
19590;BME280;12231;42.782;23.388;2023-02-19T04:40:48;95956.63;;;6.02;86.18
19590;BME280;12231;42.782;23.388;2023-02-19T04:43:16;95959.19;;;6.02;86.46
19590;BME280;12231;42.782;23.388;2023-02-19T04:45:41;95952.66;;;5.95;86.66
19590;BME280;12231;42.782;23.388;2023-02-19T04:48:07;95950.84;;;5.97;87.29
19590;BME280;12231;42.782;23.388;2023-02-19T04:50:33;95960.78;;;5.82;88.58
19590;BME280;12231;42.782;23.388;2023-02-19T04:52:58;95952.31;;;5.80;88.63
19590;BME280;12231;42.782;23.388;2023-02-19T04:55:24;95964.84;;;5.89;88.46
19590;BME280;12231;42.782;23.388;2023-02-19T04:57:49;95951.97;;;5.90;88.46
19590;BME280;12231;42.782;23.388;2023-02-19T05:00:14;95957.47;;;6.03;87.42
19590;BME280;12231;42.782;23.388;2023-02-19T05:02:40;95961.50;;;6.10;87.33
19590;BME280;12231;42.782;23.388;2023-02-19T05:05:05;95969.13;;;6.11;87.10
19590;BME280;12231;42.782;23.388;2023-02-19T05:07:32;95967.31;;;6.13;86.91
19590;BME280;12231;42.782;23.388;2023-02-19T05:09:58;95971.63;;;6.13;86.64
19590;BME280;12231;42.782;23.388;2023-02-19T05:12:24;95976.13;;;6.29;85.80
19590;BME280;12231;42.782;23.388;2023-02-19T05:14:50;95973.50;;;6.31;85.54
19590;BME280;12231;42.782;23.388;2023-02-19T05:17:15;95973.78;;;6.23;85.33
19590;BME280;12231;42.782;23.388;2023-02-19T05:19:41;95978.88;;;6.23;85.23
19590;BME280;12231;42.782;23.388;2023-02-19T05:22:06;95981.56;;;6.20;85.84
19590;BME280;12231;42.782;23.388;2023-02-19T05:24:32;95980.72;;;6.20;85.87
19590;BME280;12231;42.782;23.388;2023-02-19T05:26:57;95979.72;;;6.24;85.40
19590;BME280;12231;42.782;23.388;2023-02-19T05:29:22;95984.56;;;6.31;85.54
19590;BME280;12231;42.782;23.388;2023-02-19T05:31:48;95991.97;;;6.39;85.15
19590;BME280;12231;42.782;23.388;2023-02-19T05:34:13;95996.41;;;6.34;84.57
19590;BME280;12231;42.782;23.388;2023-02-19T05:36:39;95994.41;;;6.42;84.80
19590;BME280;12231;42.782;23.388;2023-02-19T05:39:05;95994.53;;;6.60;84.02
19590;BME280;12231;42.782;23.388;2023-02-19T05:41:31;95994.03;;;6.74;83.30
19590;BME280;12231;42.782;23.388;2023-02-19T05:43:57;96001.13;;;6.89;82.47
19590;BME280;12231;42.782;23.388;2023-02-19T05:46:25;95999.53;;;8.08;98.61
19590;BME280;12231;42.782;23.388;2023-02-19T05:48:51;95999.06;;;10.31;98.31
19590;BME280;12231;42.782;23.388;2023-02-19T05:51:19;95984.94;;;11.77;85.06
19590;BME280;12231;42.782;23.388;2023-02-19T05:53:45;95994.63;;;11.28;65.08
19590;BME280;12231;42.782;23.388;2023-02-19T05:56:23;95987.53;;;11.32;62.52
19590;BME280;12231;42.782;23.388;2023-02-19T05:58:51;96007.34;;;11.31;61.28
19590;BME280;12231;42.782;23.388;2023-02-19T06:01:19;95995.28;;;11.32;61.56
19590;BME280;12231;42.782;23.388;2023-02-19T06:03:45;96006.50;;;11.46;61.37
19590;BME280;12231;42.782;23.388;2023-02-19T06:06:14;96010.59;;;11.80;60.83
19590;BME280;12231;42.782;23.388;2023-02-19T06:08:40;96012.84;;;12.00;58.76
19590;BME280;12231;42.782;23.388;2023-02-19T06:11:06;96007.13;;;12.23;58.65
19590;BME280;12231;42.782;23.388;2023-02-19T06:13:32;96001.78;;;12.54;57.89
19590;BME280;12231;42.782;23.388;2023-02-19T06:15:57;96002.31;;;13.01;56.57
19590;BME280;12231;42.782;23.388;2023-02-19T06:18:23;96009.25;;;13.27;54.69
19590;BME280;12231;42.782;23.388;2023-02-19T06:20:48;96005.06;;;13.39;53.79
19590;BME280;12231;42.782;23.388;2023-02-19T06:23:13;96005.97;;;13.64;52.96
19590;BME280;12231;42.782;23.388;2023-02-19T06:25:40;96001.75;;;13.76;52.12
19590;BME280;12231;42.782;23.388;2023-02-19T06:28:05;96002.25;;;14.33;51.26
19590;BME280;12231;42.782;23.388;2023-02-19T06:30:31;96004.00;;;14.57;49.82
19590;BME280;12231;42.782;23.388;2023-02-19T06:32:56;96000.78;;;14.79;49.67
19590;BME280;12231;42.782;23.388;2023-02-19T06:35:21;96007.59;;;14.92;48.59
19590;BME280;12231;42.782;23.388;2023-02-19T06:37:48;96014.09;;;14.62;49.37
19590;BME280;12231;42.782;23.388;2023-02-19T06:40:14;96011.56;;;15.22;50.30
19590;BME280;12231;42.782;23.388;2023-02-19T06:42:40;96009.50;;;15.50;48.01
19590;BME280;12231;42.782;23.388;2023-02-19T06:45:06;96011.72;;;15.67;47.60
19590;BME280;12231;42.782;23.388;2023-02-19T06:47:32;96010.41;;;15.96;46.38
19590;BME280;12231;42.782;23.388;2023-02-19T06:49:58;96020.63;;;16.21;45.21
19590;BME280;12231;42.782;23.388;2023-02-19T06:52:24;96015.06;;;16.72;45.03
19590;BME280;12231;42.782;23.388;2023-02-19T06:54:50;96015.84;;;17.27;43.41
19590;BME280;12231;42.782;23.388;2023-02-19T06:57:15;96020.69;;;17.86;41.71
19590;BME280;12231;42.782;23.388;2023-02-19T06:59:41;96016.84;;;18.21;40.79
19590;BME280;12231;42.782;23.388;2023-02-19T07:02:09;96018.78;;;19.00;39.57
19590;BME280;12231;42.782;23.388;2023-02-19T07:04:35;96020.53;;;19.20;38.89
19590;BME280;12231;42.782;23.388;2023-02-19T07:07:01;96011.28;;;19.75;37.92
19590;BME280;12231;42.782;23.388;2023-02-19T07:09:26;96013.22;;;20.01;37.01
19590;BME280;12231;42.782;23.388;2023-02-19T07:11:53;96012.00;;;20.15;36.28
19590;BME280;12231;42.782;23.388;2023-02-19T07:14:18;96013.69;;;20.72;35.90
19590;BME280;12231;42.782;23.388;2023-02-19T07:16:45;96016.31;;;20.72;35.61
19590;BME280;12231;42.782;23.388;2023-02-19T07:19:12;95991.19;;;21.42;34.80
19590;BME280;12231;42.782;23.388;2023-02-19T07:21:39;95990.63;;;22.19;33.43
19590;BME280;12231;42.782;23.388;2023-02-19T07:24:05;95981.53;;;22.82;32.67
19590;BME280;12231;42.782;23.388;2023-02-19T07:26:31;95982.19;;;23.18;32.19
19590;BME280;12231;42.782;23.388;2023-02-19T07:28:56;95978.28;;;23.71;31.78
19590;BME280;12231;42.782;23.388;2023-02-19T07:31:22;95976.00;;;23.92;30.98
19590;BME280;12231;42.782;23.388;2023-02-19T07:33:48;95971.06;;;24.78;29.80
19590;BME280;12231;42.782;23.388;2023-02-19T07:36:16;95969.91;;;25.27;29.57
19590;BME280;12231;42.782;23.388;2023-02-19T07:38:42;95963.59;;;25.97;28.67
19590;BME280;12231;42.782;23.388;2023-02-19T07:41:07;95963.91;;;26.76;27.73
19590;BME280;12231;42.782;23.388;2023-02-19T07:43:35;95966.59;;;27.70;26.57
19590;BME280;12231;42.782;23.388;2023-02-19T07:46:02;95963.34;;;27.54;26.26
19590;BME280;12231;42.782;23.388;2023-02-19T07:48:28;95964.19;;;27.90;25.94
19590;BME280;12231;42.782;23.388;2023-02-19T07:50:55;95966.03;;;28.59;25.88
19590;BME280;12231;42.782;23.388;2023-02-19T07:53:22;95956.69;;;29.25;24.41
19590;BME280;12231;42.782;23.388;2023-02-19T07:55:48;95961.19;;;29.31;24.71
19590;BME280;12231;42.782;23.388;2023-02-19T07:58:14;95967.44;;;28.34;25.18
19590;BME280;12231;42.782;23.388;2023-02-19T08:00:39;95978.28;;;26.59;26.51
19590;BME280;12231;42.782;23.388;2023-02-19T08:03:05;95979.53;;;24.41;28.99
19590;BME280;12231;42.782;23.388;2023-02-19T08:05:38;95983.59;;;24.76;28.57
19590;BME280;12231;42.782;23.388;2023-02-19T08:08:12;95973.47;;;25.50;28.29
19590;BME280;12231;42.782;23.388;2023-02-19T08:10:38;95982.09;;;25.36;28.21
19590;BME280;12231;42.782;23.388;2023-02-19T08:13:22;95967.69;;;25.77;27.56
19590;BME280;12231;42.782;23.388;2023-02-19T08:18:30;95977.66;;;24.50;29.43
19590;BME280;12231;42.782;23.388;2023-02-19T08:20:56;95977.66;;;23.28;32.31
19590;BME280;12231;42.782;23.388;2023-02-19T08:23:23;95976.88;;;24.01;32.32
19590;BME280;12231;42.782;23.388;2023-02-19T08:25:50;95969.75;;;24.74;29.31
19590;BME280;12231;42.782;23.388;2023-02-19T08:28:16;95964.94;;;25.32;28.69
19590;BME280;12231;42.782;23.388;2023-02-19T08:30:44;95965.41;;;25.35;28.41
19590;BME280;12231;42.782;23.388;2023-02-19T08:33:11;95968.75;;;23.86;30.02
19590;BME280;12231;42.782;23.388;2023-02-19T08:35:37;95966.16;;;24.10;30.34
19590;BME280;12231;42.782;23.388;2023-02-19T08:38:03;95962.25;;;25.01;29.05
19590;BME280;12231;42.782;23.388;2023-02-19T08:40:29;95953.88;;;25.67;27.79
19590;BME280;12231;42.782;23.388;2023-02-19T08:43:01;95960.09;;;25.05;28.61
19590;BME280;12231;42.782;23.388;2023-02-19T08:45:27;95967.78;;;23.87;30.06
19590;BME280;12231;42.782;23.388;2023-02-19T08:47:52;95969.59;;;24.43;30.81
19590;BME280;12231;42.782;23.388;2023-02-19T08:50:18;95951.56;;;25.33;28.56
19590;BME280;12231;42.782;23.388;2023-02-19T08:52:43;95955.00;;;25.95;27.76
19590;BME280;12231;42.782;23.388;2023-02-19T08:55:09;95944.94;;;26.36;28.61
19590;BME280;12231;42.782;23.388;2023-02-19T08:57:35;95940.66;;;26.86;26.77
19590;BME280;12231;42.782;23.388;2023-02-19T09:00:02;95948.78;;;27.00;26.59
19590;BME280;12231;42.782;23.388;2023-02-19T09:02:28;95950.94;;;25.85;27.08
19590;BME280;12231;42.782;23.388;2023-02-19T09:04:55;95942.03;;;25.55;27.49
19590;BME280;12231;42.782;23.388;2023-02-19T09:07:20;95927.03;;;26.60;26.77
19590;BME280;12231;42.782;23.388;2023-02-19T09:09:47;95925.81;;;26.63;26.85
19590;BME280;12231;42.782;23.388;2023-02-19T09:12:12;95911.31;;;27.88;25.77
19590;BME280;12231;42.782;23.388;2023-02-19T09:14:38;95915.16;;;28.77;24.13
19590;BME280;12231;42.782;23.388;2023-02-19T09:17:05;95904.22;;;28.99;23.99
19590;BME280;12231;42.782;23.388;2023-02-19T09:19:31;95903.22;;;28.66;23.92
19590;BME280;12231;42.782;23.388;2023-02-19T09:21:57;95909.16;;;28.41;24.36
19590;BME280;12231;42.782;23.388;2023-02-19T09:24:23;95904.03;;;28.11;25.01
19590;BME280;12231;42.782;23.388;2023-02-19T09:26:52;95909.19;;;28.75;24.38
19590;BME280;12231;42.782;23.388;2023-02-19T09:29:18;95906.97;;;28.23;24.99
19590;BME280;12231;42.782;23.388;2023-02-19T09:31:44;95901.22;;;26.77;26.63
19590;BME280;12231;42.782;23.388;2023-02-19T09:34:09;95904.66;;;28.13;25.38
19590;BME280;12231;42.782;23.388;2023-02-19T09:36:36;95901.22;;;28.19;24.97
19590;BME280;12231;42.782;23.388;2023-02-19T09:39:03;95904.69;;;27.99;25.49
19590;BME280;12231;42.782;23.388;2023-02-19T09:41:37;95899.19;;;27.94;25.61
19590;BME280;12231;42.782;23.388;2023-02-19T09:44:06;95899.25;;;27.86;25.51
19590;BME280;12231;42.782;23.388;2023-02-19T09:52:05;95886.25;;;26.84;27.02
19590;BME280;12231;42.782;23.388;2023-02-19T09:54:33;95882.84;;;26.46;28.13
19590;BME280;12231;42.782;23.388;2023-02-19T09:57:01;95888.31;;;26.30;27.90
19590;BME280;12231;42.782;23.388;2023-02-19T09:59:44;95878.63;;;25.63;28.65
19590;BME280;12231;42.782;23.388;2023-02-19T10:02:18;95869.16;;;25.91;28.81
19590;BME280;12231;42.782;23.388;2023-02-19T10:04:46;95859.94;;;26.10;28.62
19590;BME280;12231;42.782;23.388;2023-02-19T10:07:24;95856.66;;;26.22;28.26
19590;BME280;12231;42.782;23.388;2023-02-19T10:09:57;95864.41;;;24.17;30.54
19590;BME280;12231;42.782;23.388;2023-02-19T10:12:29;95849.00;;;24.45;30.64
19590;BME280;12231;42.782;23.388;2023-02-19T10:17:46;95834.19;;;24.91;30.35
19590;BME280;12231;42.782;23.388;2023-02-19T10:20:14;95825.22;;;26.27;29.20
19590;BME280;12231;42.782;23.388;2023-02-19T10:22:41;95818.28;;;25.52;29.38
19590;BME280;12231;42.782;23.388;2023-02-19T10:25:12;95816.34;;;23.91;31.72
19590;BME280;12231;42.782;23.388;2023-02-19T10:27:38;95804.94;;;25.23;31.08
19590;BME280;12231;42.782;23.388;2023-02-19T10:30:05;95808.97;;;25.64;29.99
19590;BME280;12231;42.782;23.388;2023-02-19T10:32:31;95792.97;;;25.80;30.28
19590;BME280;12231;42.782;23.388;2023-02-19T10:35:14;95786.38;;;26.71;28.20
19590;BME280;12231;42.782;23.388;2023-02-19T10:37:50;95789.28;;;27.12;27.58
19590;BME280;12231;42.782;23.388;2023-02-19T10:40:20;95790.84;;;25.61;28.87
19590;BME280;12231;42.782;23.388;2023-02-19T10:42:58;95763.84;;;26.32;28.50
19590;BME280;12231;42.782;23.388;2023-02-19T10:45:34;95768.03;;;26.55;27.90
19590;BME280;12231;42.782;23.388;2023-02-19T10:48:03;95768.66;;;26.57;27.90
19590;BME280;12231;42.782;23.388;2023-02-19T10:50:32;95756.13;;;27.37;27.16
19590;BME280;12231;42.782;23.388;2023-02-19T10:52:59;95755.00;;;26.68;27.69
19590;BME280;12231;42.782;23.388;2023-02-19T10:55:34;95747.28;;;26.38;28.09
19590;BME280;12231;42.782;23.388;2023-02-19T10:58:22;95743.00;;;26.08;28.66
19590;BME280;12231;42.782;23.388;2023-02-19T11:01:10;95742.81;;;26.09;28.24
19590;BME280;12231;42.782;23.388;2023-02-19T11:03:36;95735.00;;;24.04;31.18
19590;BME280;12231;42.782;23.388;2023-02-19T11:06:03;95729.81;;;23.72;31.58
19590;BME280;12231;42.782;23.388;2023-02-19T11:08:55;95722.50;;;24.06;31.43
19590;BME280;12231;42.782;23.388;2023-02-19T11:11:35;95722.22;;;23.85;31.14
19590;BME280;12231;42.782;23.388;2023-02-19T11:14:16;95715.84;;;23.56;31.33
19590;BME280;12231;42.782;23.388;2023-02-19T11:16:47;95709.22;;;23.76;31.75
19590;BME280;12231;42.782;23.388;2023-02-19T11:19:28;95713.16;;;23.80;31.69
19590;BME280;12231;42.782;23.388;2023-02-19T11:21:56;95715.53;;;22.29;33.91
19590;BME280;12231;42.782;23.388;2023-02-19T11:26:56;95704.69;;;22.97;34.30
19590;BME280;12231;42.782;23.388;2023-02-19T11:29:23;95702.25;;;23.28;32.69
19590;BME280;12231;42.782;23.388;2023-02-19T11:31:57;95689.06;;;22.88;34.03
19590;BME280;12231;42.782;23.388;2023-02-19T11:34:40;95684.13;;;23.17;33.07
19590;BME280;12231;42.782;23.388;2023-02-19T11:37:11;95689.56;;;23.16;32.37
19590;BME280;12231;42.782;23.388;2023-02-19T11:39:40;95677.88;;;23.18;31.91
19590;BME280;12231;42.782;23.388;2023-02-19T11:44:48;95670.00;;;22.70;32.83
19590;BME280;12231;42.782;23.388;2023-02-19T12:00:54;95651.31;;;22.15;32.15
19590;BME280;12231;42.782;23.388;2023-02-19T12:03:28;95645.81;;;21.25;34.19
19590;BME280;12231;42.782;23.388;2023-02-19T12:06:03;95639.22;;;21.81;33.40
19590;BME280;12231;42.782;23.388;2023-02-19T12:08:48;95632.56;;;21.68;33.28
19590;BME280;12231;42.782;23.388;2023-02-19T12:20:29;95605.22;;;21.37;33.88
19590;BME280;12231;42.782;23.388;2023-02-19T12:28:40;95599.34;;;21.77;32.77
19590;BME280;12231;42.782;23.388;2023-02-19T12:37:27;95578.41;;;21.93;32.65
19590;BME280;12231;42.782;23.388;2023-02-19T12:44:58;95544.63;;;22.46;32.42
19590;BME280;12231;42.782;23.388;2023-02-19T12:47:30;95544.81;;;22.69;31.82
19590;BME280;12231;42.782;23.388;2023-02-19T12:50:20;95528.69;;;22.48;32.12
19590;BME280;12231;42.782;23.388;2023-02-19T12:53:13;95527.91;;;22.47;32.16
19590;BME280;12231;42.782;23.388;2023-02-19T12:55:38;95520.19;;;22.46;32.19
19590;BME280;12231;42.782;23.388;2023-02-19T12:58:09;95517.22;;;22.65;32.27
19590;BME280;12231;42.782;23.388;2023-02-19T13:00:37;95515.91;;;22.29;31.84
19590;BME280;12231;42.782;23.388;2023-02-19T13:03:31;95503.78;;;22.12;32.41
19590;BME280;12231;42.782;23.388;2023-02-19T13:06:23;95507.03;;;22.06;32.13
19590;BME280;12231;42.782;23.388;2023-02-19T13:09:12;95507.03;;;22.06;31.87
19590;BME280;12231;42.782;23.388;2023-02-19T13:11:49;95498.50;;;22.36;32.17
19590;BME280;12231;42.782;23.388;2023-02-19T13:14:43;95481.75;;;22.37;31.84
19590;BME280;12231;42.782;23.388;2023-02-19T13:19:50;95487.81;;;21.89;32.49
19590;BME280;12231;42.782;23.388;2023-02-19T13:25:09;95473.88;;;22.13;32.57
19590;BME280;12231;42.782;23.388;2023-02-19T13:27:46;95466.00;;;22.29;32.10
19590;BME280;12231;42.782;23.388;2023-02-19T13:33:19;95460.09;;;22.19;32.59
19590;BME280;12231;42.782;23.388;2023-02-19T13:38:44;95452.06;;;21.96;32.76
19590;BME280;12231;42.782;23.388;2023-02-19T13:41:19;95452.88;;;21.81;32.53
19590;BME280;12231;42.782;23.388;2023-02-19T13:43:45;95455.78;;;21.69;32.79
19590;BME280;12231;42.782;23.388;2023-02-19T13:46:19;95448.41;;;21.73;32.32
19590;BME280;12231;42.782;23.388;2023-02-19T13:48:44;95441.19;;;21.67;32.47
19590;BME280;12231;42.782;23.388;2023-02-19T13:53:58;95429.72;;;21.76;32.77
19590;BME280;12231;42.782;23.388;2023-02-19T14:04:24;95426.66;;;20.81;34.27
19590;BME280;12231;42.782;23.388;2023-02-19T14:14:46;95411.34;;;20.09;35.58
19590;BME280;12231;42.782;23.388;2023-02-19T14:17:46;95412.81;;;20.12;35.48
19590;BME280;12231;42.782;23.388;2023-02-19T14:27:53;95409.31;;;20.21;35.22
19590;BME280;12231;42.782;23.388;2023-02-19T14:30:21;95405.56;;;20.23;35.60
19590;BME280;12231;42.782;23.388;2023-02-19T14:32:47;95401.84;;;20.08;35.77
19590;BME280;12231;42.782;23.388;2023-02-19T14:35:18;95400.34;;;20.06;35.93
19590;BME280;12231;42.782;23.388;2023-02-19T14:37:44;95400.44;;;19.96;36.49
19590;BME280;12231;42.782;23.388;2023-02-19T14:40:20;95396.69;;;19.99;38.17
19590;BME280;12231;42.782;23.388;2023-02-19T14:42:48;95395.63;;;20.09;37.27
19590;BME280;12231;42.782;23.388;2023-02-19T14:45:16;95391.47;;;20.16;36.40
19590;BME280;12231;42.782;23.388;2023-02-19T14:47:45;95391.59;;;20.15;36.12
19590;BME280;12231;42.782;23.388;2023-02-19T14:50:16;95388.97;;;20.15;35.97
19590;BME280;12231;42.782;23.388;2023-02-19T14:52:47;95385.75;;;20.21;36.20
19590;BME280;12231;42.782;23.388;2023-02-19T14:55:27;95374.50;;;20.28;35.72
19590;BME280;12231;42.782;23.388;2023-02-19T14:57:55;95377.59;;;20.24;35.88
19590;BME280;12231;42.782;23.388;2023-02-19T15:00:26;95376.66;;;20.07;36.09
19590;BME280;12231;42.782;23.388;2023-02-19T15:02:54;95372.19;;;20.00;36.00
19590;BME280;12231;42.782;23.388;2023-02-19T15:05:24;95362.56;;;19.83;36.14
19590;BME280;12231;42.782;23.388;2023-02-19T15:07:51;95364.31;;;19.74;37.33
19590;BME280;12231;42.782;23.388;2023-02-19T15:10:18;95362.38;;;19.76;36.55
19590;BME280;12231;42.782;23.388;2023-02-19T15:12:57;95354.66;;;19.75;35.82